sensor_id;sensor_type;location;lat;lon;timestamp;P1;durP1;ratioP1;P2;durP2;ratioP2
15356;SDS011;7778;48.792;9.260;2024-03-02T00:02:46;13.23;;;6.97;;
15356;SDS011;7778;48.792;9.260;2024-03-02T00:05:34;11.60;;;6.57;;
15356;SDS011;7778;48.792;9.260;2024-03-02T00:08:22;12.13;;;6.57;;
15356;SDS011;7778;48.792;9.260;2024-03-02T00:11:10;12.55;;;6.50;;
15356;SDS011;7778;48.792;9.260;2024-03-02T00:13:57;11.73;;;6.50;;
15356;SDS011;7778;48.792;9.260;2024-03-02T00:16:43;11.10;;;7.15;;
15356;SDS011;7778;48.792;9.260;2024-03-02T00:19:31;11.27;;;6.03;;
15356;SDS011;7778;48.792;9.260;2024-03-02T00:22:16;14.20;;;7.45;;
15356;SDS011;7778;48.792;9.260;2024-03-02T00:25:02;14.75;;;6.85;;
15356;SDS011;7778;48.792;9.260;2024-03-02T00:27:49;14.93;;;7.13;;
15356;SDS011;7778;48.792;9.260;2024-03-02T00:30:42;11.00;;;6.22;;
15356;SDS011;7778;48.792;9.260;2024-03-02T00:33:49;11.00;;;6.10;;
15356;SDS011;7778;48.792;9.260;2024-03-02T00:36:36;14.30;;;7.47;;
15356;SDS011;7778;48.792;9.260;2024-03-02T00:39:22;15.77;;;7.00;;
15356;SDS011;7778;48.792;9.260;2024-03-02T00:42:08;13.13;;;6.97;;
15356;SDS011;7778;48.792;9.260;2024-03-02T00:44:56;12.98;;;7.22;;
15356;SDS011;7778;48.792;9.260;2024-03-02T00:47:42;15.52;;;7.38;;
15356;SDS011;7778;48.792;9.260;2024-03-02T00:50:27;13.27;;;7.50;;
15356;SDS011;7778;48.792;9.260;2024-03-02T00:53:23;12.50;;;6.70;;
15356;SDS011;7778;48.792;9.260;2024-03-02T00:56:11;12.73;;;7.03;;
15356;SDS011;7778;48.792;9.260;2024-03-02T00:58:57;13.20;;;6.85;;
15356;SDS011;7778;48.792;9.260;2024-03-02T01:01:42;11.82;;;6.43;;
15356;SDS011;7778;48.792;9.260;2024-03-02T01:04:28;13.63;;;6.70;;
15356;SDS011;7778;48.792;9.260;2024-03-02T01:07:13;14.50;;;6.78;;
15356;SDS011;7778;48.792;9.260;2024-03-02T01:10:00;11.32;;;6.95;;
15356;SDS011;7778;48.792;9.260;2024-03-02T01:12:47;12.27;;;6.25;;
15356;SDS011;7778;48.792;9.260;2024-03-02T01:15:33;15.52;;;7.47;;
15356;SDS011;7778;48.792;9.260;2024-03-02T01:18:19;14.50;;;6.20;;
15356;SDS011;7778;48.792;9.260;2024-03-02T01:21:05;14.20;;;7.30;;
15356;SDS011;7778;48.792;9.260;2024-03-02T01:23:51;11.98;;;6.28;;
15356;SDS011;7778;48.792;9.260;2024-03-02T01:26:38;11.30;;;6.40;;
15356;SDS011;7778;48.792;9.260;2024-03-02T01:29:24;14.13;;;7.03;;
15356;SDS011;7778;48.792;9.260;2024-03-02T01:32:09;13.48;;;6.88;;
15356;SDS011;7778;48.792;9.260;2024-03-02T01:34:55;12.65;;;6.85;;
15356;SDS011;7778;48.792;9.260;2024-03-02T01:37:40;13.27;;;6.20;;
15356;SDS011;7778;48.792;9.260;2024-03-02T01:40:26;10.40;;;5.72;;
15356;SDS011;7778;48.792;9.260;2024-03-02T01:43:13;12.65;;;6.53;;
15356;SDS011;7778;48.792;9.260;2024-03-02T01:45:58;14.00;;;7.07;;
15356;SDS011;7778;48.792;9.260;2024-03-02T01:48:44;10.88;;;6.43;;
15356;SDS011;7778;48.792;9.260;2024-03-02T01:51:30;10.95;;;6.72;;
15356;SDS011;7778;48.792;9.260;2024-03-02T01:54:16;10.30;;;5.90;;
15356;SDS011;7778;48.792;9.260;2024-03-02T01:57:02;12.48;;;6.72;;
15356;SDS011;7778;48.792;9.260;2024-03-02T01:59:49;13.35;;;6.57;;
15356;SDS011;7778;48.792;9.260;2024-03-02T02:02:36;13.73;;;6.78;;
15356;SDS011;7778;48.792;9.260;2024-03-02T02:05:22;13.38;;;6.47;;
15356;SDS011;7778;48.792;9.260;2024-03-02T02:08:08;12.20;;;6.25;;
15356;SDS011;7778;48.792;9.260;2024-03-02T02:10:53;13.73;;;6.20;;
15356;SDS011;7778;48.792;9.260;2024-03-02T02:13:39;11.18;;;6.22;;
15356;SDS011;7778;48.792;9.260;2024-03-02T02:16:26;14.40;;;6.78;;
15356;SDS011;7778;48.792;9.260;2024-03-02T02:19:11;10.85;;;6.05;;
15356;SDS011;7778;48.792;9.260;2024-03-02T02:21:58;12.13;;;6.57;;
15356;SDS011;7778;48.792;9.260;2024-03-02T02:24:44;15.38;;;6.20;;
15356;SDS011;7778;48.792;9.260;2024-03-02T02:27:29;12.13;;;6.97;;
15356;SDS011;7778;48.792;9.260;2024-03-02T02:30:18;14.57;;;7.82;;
15356;SDS011;7778;48.792;9.260;2024-03-02T02:33:06;12.88;;;6.88;;
15356;SDS011;7778;48.792;9.260;2024-03-02T02:35:51;16.08;;;6.50;;
15356;SDS011;7778;48.792;9.260;2024-03-02T02:38:39;16.63;;;6.40;;
15356;SDS011;7778;48.792;9.260;2024-03-02T02:41:28;15.27;;;7.03;;
15356;SDS011;7778;48.792;9.260;2024-03-02T02:44:14;11.32;;;6.97;;
15356;SDS011;7778;48.792;9.260;2024-03-02T02:46:59;16.25;;;7.00;;
15356;SDS011;7778;48.792;9.260;2024-03-02T02:49:45;13.00;;;6.68;;
15356;SDS011;7778;48.792;9.260;2024-03-02T02:52:31;14.35;;;6.80;;
15356;SDS011;7778;48.792;9.260;2024-03-02T02:55:20;14.60;;;7.43;;
15356;SDS011;7778;48.792;9.260;2024-03-02T02:58:05;13.80;;;7.38;;
15356;SDS011;7778;48.792;9.260;2024-03-02T03:00:51;12.63;;;7.18;;
15356;SDS011;7778;48.792;9.260;2024-03-02T03:03:38;13.95;;;5.75;;
15356;SDS011;7778;48.792;9.260;2024-03-02T03:06:24;12.30;;;6.80;;
15356;SDS011;7778;48.792;9.260;2024-03-02T03:09:10;11.05;;;6.00;;
15356;SDS011;7778;48.792;9.260;2024-03-02T03:11:56;11.55;;;6.63;;
15356;SDS011;7778;48.792;9.260;2024-03-02T03:14:42;14.80;;;6.97;;
15356;SDS011;7778;48.792;9.260;2024-03-02T03:17:28;15.43;;;8.10;;
15356;SDS011;7778;48.792;9.260;2024-03-02T03:20:13;12.10;;;6.35;;
15356;SDS011;7778;48.792;9.260;2024-03-02T03:22:59;11.90;;;5.80;;
15356;SDS011;7778;48.792;9.260;2024-03-02T03:25:44;10.38;;;6.03;;
15356;SDS011;7778;48.792;9.260;2024-03-02T03:28:31;12.95;;;6.60;;
15356;SDS011;7778;48.792;9.260;2024-03-02T03:31:17;12.50;;;6.95;;
15356;SDS011;7778;48.792;9.260;2024-03-02T03:34:02;15.60;;;7.05;;
15356;SDS011;7778;48.792;9.260;2024-03-02T03:36:48;15.15;;;7.05;;
15356;SDS011;7778;48.792;9.260;2024-03-02T03:39:33;10.75;;;6.82;;
15356;SDS011;7778;48.792;9.260;2024-03-02T03:42:20;13.85;;;6.75;;
15356;SDS011;7778;48.792;9.260;2024-03-02T03:45:07;12.55;;;6.65;;
15356;SDS011;7778;48.792;9.260;2024-03-02T03:47:54;15.68;;;6.93;;
15356;SDS011;7778;48.792;9.260;2024-03-02T03:50:39;15.27;;;6.75;;
15356;SDS011;7778;48.792;9.260;2024-03-02T03:53:25;15.80;;;6.43;;
15356;SDS011;7778;48.792;9.260;2024-03-02T03:56:11;17.38;;;8.75;;
15356;SDS011;7778;48.792;9.260;2024-03-02T03:58:57;18.73;;;7.55;;
15356;SDS011;7778;48.792;9.260;2024-03-02T04:01:44;14.98;;;6.60;;
15356;SDS011;7778;48.792;9.260;2024-03-02T04:04:30;13.55;;;7.20;;
15356;SDS011;7778;48.792;9.260;2024-03-02T04:07:17;16.23;;;7.93;;
15356;SDS011;7778;48.792;9.260;2024-03-02T04:10:03;14.77;;;7.68;;
15356;SDS011;7778;48.792;9.260;2024-03-02T04:12:51;14.18;;;6.82;;
15356;SDS011;7778;48.792;9.260;2024-03-02T04:15:37;16.33;;;7.88;;
15356;SDS011;7778;48.792;9.260;2024-03-02T04:18:25;16.02;;;7.43;;
15356;SDS011;7778;48.792;9.260;2024-03-02T04:21:11;13.88;;;6.72;;
15356;SDS011;7778;48.792;9.260;2024-03-02T04:23:56;13.35;;;7.20;;
15356;SDS011;7778;48.792;9.260;2024-03-02T04:26:42;13.20;;;6.30;;
15356;SDS011;7778;48.792;9.260;2024-03-02T04:29:28;12.95;;;6.93;;
15356;SDS011;7778;48.792;9.260;2024-03-02T04:32:13;12.75;;;7.60;;
15356;SDS011;7778;48.792;9.260;2024-03-02T04:35:00;14.45;;;6.55;;
15356;SDS011;7778;48.792;9.260;2024-03-02T04:37:46;15.27;;;7.32;;
15356;SDS011;7778;48.792;9.260;2024-03-02T04:40:31;17.88;;;7.63;;
15356;SDS011;7778;48.792;9.260;2024-03-02T04:43:17;12.18;;;6.68;;
15356;SDS011;7778;48.792;9.260;2024-03-02T04:46:03;16.10;;;7.35;;
15356;SDS011;7778;48.792;9.260;2024-03-02T04:48:50;17.65;;;7.93;;
15356;SDS011;7778;48.792;9.260;2024-03-02T04:51:40;14.50;;;7.30;;
15356;SDS011;7778;48.792;9.260;2024-03-02T04:54:26;14.38;;;6.38;;
15356;SDS011;7778;48.792;9.260;2024-03-02T04:57:11;16.08;;;6.90;;
15356;SDS011;7778;48.792;9.260;2024-03-02T04:59:57;14.30;;;7.10;;
15356;SDS011;7778;48.792;9.260;2024-03-02T05:02:42;12.18;;;6.65;;
15356;SDS011;7778;48.792;9.260;2024-03-02T05:05:28;13.55;;;7.38;;
15356;SDS011;7778;48.792;9.260;2024-03-02T05:08:15;15.88;;;7.68;;
15356;SDS011;7778;48.792;9.260;2024-03-02T05:11:01;18.83;;;6.82;;
15356;SDS011;7778;48.792;9.260;2024-03-02T05:14:12;19.13;;;7.45;;
15356;SDS011;7778;48.792;9.260;2024-03-02T05:16:58;13.60;;;6.97;;
15356;SDS011;7778;48.792;9.260;2024-03-02T05:19:43;15.88;;;7.38;;
15356;SDS011;7778;48.792;9.260;2024-03-02T05:22:29;15.57;;;8.25;;
15356;SDS011;7778;48.792;9.260;2024-03-02T05:25:16;12.98;;;6.68;;
15356;SDS011;7778;48.792;9.260;2024-03-02T05:28:02;13.23;;;7.05;;
15356;SDS011;7778;48.792;9.260;2024-03-02T05:30:48;14.60;;;7.60;;
15356;SDS011;7778;48.792;9.260;2024-03-02T05:33:34;15.70;;;7.30;;
15356;SDS011;7778;48.792;9.260;2024-03-02T05:36:20;14.35;;;6.95;;
15356;SDS011;7778;48.792;9.260;2024-03-02T05:39:06;15.65;;;6.60;;
15356;SDS011;7778;48.792;9.260;2024-03-02T05:41:54;12.82;;;6.55;;
15356;SDS011;7778;48.792;9.260;2024-03-02T05:44:39;11.00;;;6.60;;
15356;SDS011;7778;48.792;9.260;2024-03-02T05:47:25;11.68;;;6.88;;
15356;SDS011;7778;48.792;9.260;2024-03-02T05:50:11;12.73;;;7.80;;
15356;SDS011;7778;48.792;9.260;2024-03-02T05:52:57;12.73;;;6.85;;
15356;SDS011;7778;48.792;9.260;2024-03-02T05:55:43;13.50;;;7.10;;
15356;SDS011;7778;48.792;9.260;2024-03-02T05:58:31;14.77;;;7.95;;
15356;SDS011;7778;48.792;9.260;2024-03-02T06:01:30;12.63;;;7.13;;
15356;SDS011;7778;48.792;9.260;2024-03-02T06:04:15;16.70;;;8.05;;
15356;SDS011;7778;48.792;9.260;2024-03-02T06:07:01;16.30;;;7.55;;
15356;SDS011;7778;48.792;9.260;2024-03-02T06:09:47;11.57;;;6.63;;
15356;SDS011;7778;48.792;9.260;2024-03-02T06:12:35;16.92;;;7.40;;
15356;SDS011;7778;48.792;9.260;2024-03-02T06:15:22;16.58;;;7.38;;
15356;SDS011;7778;48.792;9.260;2024-03-02T06:18:08;13.80;;;7.57;;
15356;SDS011;7778;48.792;9.260;2024-03-02T06:20:53;16.60;;;7.70;;
15356;SDS011;7778;48.792;9.260;2024-03-02T06:23:39;16.30;;;8.00;;
15356;SDS011;7778;48.792;9.260;2024-03-02T06:26:24;16.98;;;7.35;;
15356;SDS011;7778;48.792;9.260;2024-03-02T06:29:10;14.77;;;7.38;;
15356;SDS011;7778;48.792;9.260;2024-03-02T06:31:57;18.58;;;6.78;;
15356;SDS011;7778;48.792;9.260;2024-03-02T06:34:43;24.85;;;8.35;;
15356;SDS011;7778;48.792;9.260;2024-03-02T06:37:28;14.55;;;7.43;;
15356;SDS011;7778;48.792;9.260;2024-03-02T06:40:14;15.18;;;6.60;;
15356;SDS011;7778;48.792;9.260;2024-03-02T06:43:00;19.15;;;7.53;;
15356;SDS011;7778;48.792;9.260;2024-03-02T06:45:45;14.85;;;6.97;;
15356;SDS011;7778;48.792;9.260;2024-03-02T06:48:32;13.82;;;6.80;;
15356;SDS011;7778;48.792;9.260;2024-03-02T06:51:18;15.52;;;7.28;;
15356;SDS011;7778;48.792;9.260;2024-03-02T06:54:03;15.90;;;7.00;;
15356;SDS011;7778;48.792;9.260;2024-03-02T06:56:49;14.27;;;7.20;;
15356;SDS011;7778;48.792;9.260;2024-03-02T06:59:35;15.30;;;6.45;;
15356;SDS011;7778;48.792;9.260;2024-03-02T07:02:20;13.73;;;7.40;;
15356;SDS011;7778;48.792;9.260;2024-03-02T07:05:08;13.02;;;6.68;;
15356;SDS011;7778;48.792;9.260;2024-03-02T07:07:54;13.60;;;7.05;;
15356;SDS011;7778;48.792;9.260;2024-03-02T07:10:39;15.70;;;7.40;;
15356;SDS011;7778;48.792;9.260;2024-03-02T07:13:25;12.75;;;6.63;;
15356;SDS011;7778;48.792;9.260;2024-03-02T07:16:10;13.05;;;7.10;;
15356;SDS011;7778;48.792;9.260;2024-03-02T07:19:11;11.85;;;6.85;;
15356;SDS011;7778;48.792;9.260;2024-03-02T07:21:58;15.02;;;8.30;;
15356;SDS011;7778;48.792;9.260;2024-03-02T07:24:44;13.73;;;7.32;;
15356;SDS011;7778;48.792;9.260;2024-03-02T07:27:30;14.88;;;7.78;;
15356;SDS011;7778;48.792;9.260;2024-03-02T07:30:17;17.20;;;7.32;;
15356;SDS011;7778;48.792;9.260;2024-03-02T07:33:03;12.23;;;6.45;;
15356;SDS011;7778;48.792;9.260;2024-03-02T07:35:50;12.05;;;6.65;;
15356;SDS011;7778;48.792;9.260;2024-03-02T07:38:37;13.25;;;6.82;;
15356;SDS011;7778;48.792;9.260;2024-03-02T07:41:24;11.48;;;6.47;;
15356;SDS011;7778;48.792;9.260;2024-03-02T07:44:10;12.13;;;5.97;;
15356;SDS011;7778;48.792;9.260;2024-03-02T07:46:58;12.75;;;6.30;;
15356;SDS011;7778;48.792;9.260;2024-03-02T07:49:44;14.90;;;7.25;;
15356;SDS011;7778;48.792;9.260;2024-03-02T07:52:30;10.73;;;6.65;;
15356;SDS011;7778;48.792;9.260;2024-03-02T07:55:17;11.82;;;6.05;;
15356;SDS011;7778;48.792;9.260;2024-03-02T07:58:02;12.00;;;6.80;;
15356;SDS011;7778;48.792;9.260;2024-03-02T08:00:49;11.68;;;5.43;;
15356;SDS011;7778;48.792;9.260;2024-03-02T08:03:35;10.98;;;5.60;;
15356;SDS011;7778;48.792;9.260;2024-03-02T08:06:22;8.50;;;5.35;;
15356;SDS011;7778;48.792;9.260;2024-03-02T08:09:10;9.77;;;6.07;;
15356;SDS011;7778;48.792;9.260;2024-03-02T08:11:57;11.27;;;5.20;;
15356;SDS011;7778;48.792;9.260;2024-03-02T08:14:43;10.05;;;5.50;;
15356;SDS011;7778;48.792;9.260;2024-03-02T08:17:28;9.68;;;5.50;;
15356;SDS011;7778;48.792;9.260;2024-03-02T08:20:14;9.43;;;4.93;;
15356;SDS011;7778;48.792;9.260;2024-03-02T08:23:00;7.82;;;4.97;;
15356;SDS011;7778;48.792;9.260;2024-03-02T08:25:46;9.65;;;5.45;;
15356;SDS011;7778;48.792;9.260;2024-03-02T08:28:33;6.75;;;4.35;;
15356;SDS011;7778;48.792;9.260;2024-03-02T08:31:20;7.97;;;4.43;;
15356;SDS011;7778;48.792;9.260;2024-03-02T08:34:05;8.68;;;5.07;;
15356;SDS011;7778;48.792;9.260;2024-03-02T08:36:51;10.07;;;4.95;;
15356;SDS011;7778;48.792;9.260;2024-03-02T08:39:37;9.95;;;4.93;;
15356;SDS011;7778;48.792;9.260;2024-03-02T08:42:22;9.07;;;4.80;;
15356;SDS011;7778;48.792;9.260;2024-03-02T08:45:09;10.52;;;4.63;;
15356;SDS011;7778;48.792;9.260;2024-03-02T08:47:55;7.97;;;4.15;;
15356;SDS011;7778;48.792;9.260;2024-03-02T08:50:41;7.38;;;4.20;;
15356;SDS011;7778;48.792;9.260;2024-03-02T08:53:26;14.43;;;4.97;;
15356;SDS011;7778;48.792;9.260;2024-03-02T08:56:12;7.85;;;4.28;;
15356;SDS011;7778;48.792;9.260;2024-03-02T08:58:59;6.07;;;3.53;;
15356;SDS011;7778;48.792;9.260;2024-03-02T09:01:46;7.10;;;3.50;;
15356;SDS011;7778;48.792;9.260;2024-03-02T09:04:32;6.63;;;3.60;;
15356;SDS011;7778;48.792;9.260;2024-03-02T09:07:17;7.80;;;3.65;;
15356;SDS011;7778;48.792;9.260;2024-03-02T09:10:04;5.45;;;3.30;;
15356;SDS011;7778;48.792;9.260;2024-03-02T09:12:50;5.22;;;3.20;;
15356;SDS011;7778;48.792;9.260;2024-03-02T09:15:36;6.75;;;3.55;;
15356;SDS011;7778;48.792;9.260;2024-03-02T09:18:24;6.40;;;3.78;;
15356;SDS011;7778;48.792;9.260;2024-03-02T09:21:10;6.45;;;2.72;;
15356;SDS011;7778;48.792;9.260;2024-03-02T09:23:55;5.15;;;3.08;;
15356;SDS011;7778;48.792;9.260;2024-03-02T09:26:42;7.57;;;3.38;;
15356;SDS011;7778;48.792;9.260;2024-03-02T09:29:27;8.57;;;3.85;;
15356;SDS011;7778;48.792;9.260;2024-03-02T09:32:13;3.60;;;2.58;;
15356;SDS011;7778;48.792;9.260;2024-03-02T09:35:00;5.95;;;2.83;;
15356;SDS011;7778;48.792;9.260;2024-03-02T09:37:46;5.57;;;2.88;;
15356;SDS011;7778;48.792;9.260;2024-03-02T09:40:31;4.07;;;2.75;;
15356;SDS011;7778;48.792;9.260;2024-03-02T09:43:17;6.90;;;3.10;;
15356;SDS011;7778;48.792;9.260;2024-03-02T09:46:03;4.57;;;2.83;;
15356;SDS011;7778;48.792;9.260;2024-03-02T09:48:50;4.05;;;2.65;;
15356;SDS011;7778;48.792;9.260;2024-03-02T09:51:37;5.50;;;2.63;;
15356;SDS011;7778;48.792;9.260;2024-03-02T09:54:23;4.35;;;2.60;;
15356;SDS011;7778;48.792;9.260;2024-03-02T09:57:10;4.28;;;2.80;;
15356;SDS011;7778;48.792;9.260;2024-03-02T09:59:55;3.33;;;2.35;;
15356;SDS011;7778;48.792;9.260;2024-03-02T10:02:41;4.38;;;2.78;;
15356;SDS011;7778;48.792;9.260;2024-03-02T10:05:27;4.72;;;2.50;;
15356;SDS011;7778;48.792;9.260;2024-03-02T10:08:14;4.60;;;2.20;;
15356;SDS011;7778;48.792;9.260;2024-03-02T10:10:59;3.20;;;2.22;;
15356;SDS011;7778;48.792;9.260;2024-03-02T10:13:45;3.10;;;1.98;;
15356;SDS011;7778;48.792;9.260;2024-03-02T10:16:32;3.38;;;2.15;;
15356;SDS011;7778;48.792;9.260;2024-03-02T10:19:19;3.17;;;2.10;;
15356;SDS011;7778;48.792;9.260;2024-03-02T10:22:06;2.97;;;2.13;;
15356;SDS011;7778;48.792;9.260;2024-03-02T10:24:54;3.45;;;2.28;;
15356;SDS011;7778;48.792;9.260;2024-03-02T10:27:39;4.82;;;2.35;;
15356;SDS011;7778;48.792;9.260;2024-03-02T10:30:26;4.40;;;2.38;;
15356;SDS011;7778;48.792;9.260;2024-03-02T10:33:11;3.47;;;2.15;;
15356;SDS011;7778;48.792;9.260;2024-03-02T10:35:57;6.00;;;2.45;;
15356;SDS011;7778;48.792;9.260;2024-03-02T10:38:42;4.18;;;2.00;;
15356;SDS011;7778;48.792;9.260;2024-03-02T10:41:33;2.85;;;1.98;;
15356;SDS011;7778;48.792;9.260;2024-03-02T10:44:20;3.92;;;2.60;;
15356;SDS011;7778;48.792;9.260;2024-03-02T10:47:07;4.35;;;2.88;;
15356;SDS011;7778;48.792;9.260;2024-03-02T10:49:57;3.65;;;2.72;;
15356;SDS011;7778;48.792;9.260;2024-03-02T10:52:47;4.80;;;2.53;;
15356;SDS011;7778;48.792;9.260;2024-03-02T10:55:34;4.82;;;2.50;;
15356;SDS011;7778;48.792;9.260;2024-03-02T10:58:26;2.85;;;2.13;;
15356;SDS011;7778;48.792;9.260;2024-03-02T11:01:16;3.35;;;2.20;;
15356;SDS011;7778;48.792;9.260;2024-03-02T11:04:03;4.40;;;2.20;;
15356;SDS011;7778;48.792;9.260;2024-03-02T11:06:54;3.60;;;2.40;;
15356;SDS011;7778;48.792;9.260;2024-03-02T11:09:49;2.75;;;2.10;;
15356;SDS011;7778;48.792;9.260;2024-03-02T11:12:44;2.90;;;2.40;;
15356;SDS011;7778;48.792;9.260;2024-03-02T11:15:40;4.40;;;2.53;;
15356;SDS011;7778;48.792;9.260;2024-03-02T11:18:28;3.17;;;2.38;;
15356;SDS011;7778;48.792;9.260;2024-03-02T11:21:14;3.83;;;2.28;;
15356;SDS011;7778;48.792;9.260;2024-03-02T11:24:00;2.13;;;1.92;;
15356;SDS011;7778;48.792;9.260;2024-03-02T11:30:51;2.38;;;2.03;;
15356;SDS011;7778;48.792;9.260;2024-03-02T11:33:37;1.58;;;1.15;;
15356;SDS011;7778;48.792;9.260;2024-03-02T11:36:23;1.67;;;1.45;;
15356;SDS011;7778;48.792;9.260;2024-03-02T11:39:08;2.33;;;1.67;;
15356;SDS011;7778;48.792;9.260;2024-03-02T11:41:54;1.30;;;1.20;;
15356;SDS011;7778;48.792;9.260;2024-03-02T11:44:41;1.60;;;1.30;;
15356;SDS011;7778;48.792;9.260;2024-03-02T11:47:32;5.50;;;2.05;;
15356;SDS011;7778;48.792;9.260;2024-03-02T11:50:27;1.58;;;1.23;;
15356;SDS011;7778;48.792;9.260;2024-03-02T11:53:14;0.73;;;0.73;;
15356;SDS011;7778;48.792;9.260;2024-03-02T11:56:00;1.85;;;0.63;;
15356;SDS011;7778;48.792;9.260;2024-03-02T11:58:49;0.50;;;0.30;;
15356;SDS011;7778;48.792;9.260;2024-03-02T12:01:38;0.95;;;0.68;;
15356;SDS011;7778;48.792;9.260;2024-03-02T12:04:25;2.25;;;0.88;;
15356;SDS011;7778;48.792;9.260;2024-03-02T12:07:11;1.75;;;0.98;;
15356;SDS011;7778;48.792;9.260;2024-03-02T12:10:01;1.08;;;0.73;;
15356;SDS011;7778;48.792;9.260;2024-03-02T12:12:54;1.60;;;0.65;;
15356;SDS011;7778;48.792;9.260;2024-03-02T12:15:41;1.35;;;0.75;;
15356;SDS011;7778;48.792;9.260;2024-03-02T12:18:27;1.05;;;0.68;;
15356;SDS011;7778;48.792;9.260;2024-03-02T12:21:14;0.75;;;0.45;;
15356;SDS011;7778;48.792;9.260;2024-03-02T12:24:00;1.08;;;0.90;;
15356;SDS011;7778;48.792;9.260;2024-03-02T12:26:47;1.02;;;0.68;;
15356;SDS011;7778;48.792;9.260;2024-03-02T12:29:34;1.17;;;0.55;;
15356;SDS011;7778;48.792;9.260;2024-03-02T12:32:19;1.58;;;0.68;;
15356;SDS011;7778;48.792;9.260;2024-03-02T12:35:06;1.05;;;0.38;;
15356;SDS011;7778;48.792;9.260;2024-03-02T12:37:54;0.43;;;0.10;;
15356;SDS011;7778;48.792;9.260;2024-03-02T12:40:40;0.70;;;0.47;;
15356;SDS011;7778;48.792;9.260;2024-03-02T12:43:29;0.50;;;0.45;;
15356;SDS011;7778;48.792;9.260;2024-03-02T12:46:15;0.52;;;0.40;;
15356;SDS011;7778;48.792;9.260;2024-03-02T12:49:04;1.52;;;0.82;;
15356;SDS011;7778;48.792;9.260;2024-03-02T12:51:57;1.23;;;0.60;;
15356;SDS011;7778;48.792;9.260;2024-03-02T12:54:44;1.67;;;0.50;;
15356;SDS011;7778;48.792;9.260;2024-03-02T12:57:30;1.08;;;0.55;;
15356;SDS011;7778;48.792;9.260;2024-03-02T13:00:18;0.88;;;0.52;;
15356;SDS011;7778;48.792;9.260;2024-03-02T13:03:04;0.65;;;0.50;;
15356;SDS011;7778;48.792;9.260;2024-03-02T13:05:51;0.55;;;0.55;;
15356;SDS011;7778;48.792;9.260;2024-03-02T13:08:37;0.90;;;0.63;;
15356;SDS011;7778;48.792;9.260;2024-03-02T13:11:25;0.50;;;0.40;;
15356;SDS011;7778;48.792;9.260;2024-03-02T13:14:10;1.80;;;0.90;;
15356;SDS011;7778;48.792;9.260;2024-03-02T13:16:56;1.27;;;0.88;;
15356;SDS011;7778;48.792;9.260;2024-03-02T13:19:50;0.20;;;0.20;;
15356;SDS011;7778;48.792;9.260;2024-03-02T13:22:37;0.75;;;0.52;;
15356;SDS011;7778;48.792;9.260;2024-03-02T13:25:24;0.55;;;0.40;;
15356;SDS011;7778;48.792;9.260;2024-03-02T13:28:11;1.50;;;0.70;;
15356;SDS011;7778;48.792;9.260;2024-03-02T13:30:57;0.57;;;0.57;;
15356;SDS011;7778;48.792;9.260;2024-03-02T13:33:43;0.95;;;0.52;;
15356;SDS011;7778;48.792;9.260;2024-03-02T13:36:29;0.80;;;0.70;;
15356;SDS011;7778;48.792;9.260;2024-03-02T13:39:14;1.20;;;0.60;;
15356;SDS011;7778;48.792;9.260;2024-03-02T13:42:00;0.55;;;0.55;;
15356;SDS011;7778;48.792;9.260;2024-03-02T13:44:50;0.80;;;0.57;;
15356;SDS011;7778;48.792;9.260;2024-03-02T13:47:36;0.73;;;0.70;;
15356;SDS011;7778;48.792;9.260;2024-03-02T13:50:21;1.02;;;0.65;;
15356;SDS011;7778;48.792;9.260;2024-03-02T13:53:07;1.48;;;0.90;;
15356;SDS011;7778;48.792;9.260;2024-03-02T13:55:53;1.00;;;0.80;;
15356;SDS011;7778;48.792;9.260;2024-03-02T13:58:39;0.85;;;0.80;;
15356;SDS011;7778;48.792;9.260;2024-03-02T14:01:26;1.15;;;0.90;;
15356;SDS011;7778;48.792;9.260;2024-03-02T14:04:11;2.08;;;0.98;;
15356;SDS011;7778;48.792;9.260;2024-03-02T14:06:57;0.80;;;0.60;;
15356;SDS011;7778;48.792;9.260;2024-03-02T14:09:42;3.28;;;0.80;;
15356;SDS011;7778;48.792;9.260;2024-03-02T14:12:29;0.57;;;0.57;;
15356;SDS011;7778;48.792;9.260;2024-03-02T14:15:15;1.98;;;0.60;;
15356;SDS011;7778;48.792;9.260;2024-03-02T14:18:02;0.43;;;0.43;;
15356;SDS011;7778;48.792;9.260;2024-03-02T14:20:49;1.55;;;0.73;;
15356;SDS011;7778;48.792;9.260;2024-03-02T14:23:36;1.23;;;0.80;;
15356;SDS011;7778;48.792;9.260;2024-03-02T14:26:22;0.88;;;0.65;;
15356;SDS011;7778;48.792;9.260;2024-03-02T14:29:07;0.45;;;0.38;;
15356;SDS011;7778;48.792;9.260;2024-03-02T14:31:53;1.25;;;0.93;;
15356;SDS011;7778;48.792;9.260;2024-03-02T14:34:40;1.05;;;0.70;;
15356;SDS011;7778;48.792;9.260;2024-03-02T14:37:26;1.05;;;0.80;;
15356;SDS011;7778;48.792;9.260;2024-03-02T14:40:12;0.93;;;0.57;;
15356;SDS011;7778;48.792;9.260;2024-03-02T14:42:57;0.52;;;0.52;;
15356;SDS011;7778;48.792;9.260;2024-03-02T14:45:43;0.52;;;0.52;;
15356;SDS011;7778;48.792;9.260;2024-03-02T14:48:29;0.88;;;0.60;;
15356;SDS011;7778;48.792;9.260;2024-03-02T14:51:18;0.68;;;0.60;;
15356;SDS011;7778;48.792;9.260;2024-03-02T14:54:04;1.50;;;0.80;;
15356;SDS011;7778;48.792;9.260;2024-03-02T14:56:50;0.50;;;0.40;;
15356;SDS011;7778;48.792;9.260;2024-03-02T14:59:35;1.13;;;0.45;;
15356;SDS011;7778;48.792;9.260;2024-03-02T15:02:21;1.00;;;0.77;;
15356;SDS011;7778;48.792;9.260;2024-03-02T15:05:07;0.75;;;0.35;;
15356;SDS011;7778;48.792;9.260;2024-03-02T15:07:55;1.50;;;0.88;;
15356;SDS011;7778;48.792;9.260;2024-03-02T15:10:43;0.28;;;0.28;;
15356;SDS011;7778;48.792;9.260;2024-03-02T15:13:28;0.68;;;0.55;;
15356;SDS011;7778;48.792;9.260;2024-03-02T15:16:14;1.52;;;0.80;;
15356;SDS011;7778;48.792;9.260;2024-03-02T15:18:59;0.80;;;0.80;;
15356;SDS011;7778;48.792;9.260;2024-03-02T15:21:46;0.40;;;0.40;;
15356;SDS011;7778;48.792;9.260;2024-03-02T15:24:33;2.05;;;0.40;;
15356;SDS011;7778;48.792;9.260;2024-03-02T15:27:19;0.93;;;0.80;;
15356;SDS011;7778;48.792;9.260;2024-03-02T15:30:05;1.60;;;0.65;;
15356;SDS011;7778;48.792;9.260;2024-03-02T15:32:52;0.35;;;0.30;;
15356;SDS011;7778;48.792;9.260;2024-03-02T15:35:38;0.40;;;0.40;;
15356;SDS011;7778;48.792;9.260;2024-03-02T15:38:24;0.68;;;0.50;;
15356;SDS011;7778;48.792;9.260;2024-03-02T15:41:11;1.65;;;1.08;;
15356;SDS011;7778;48.792;9.260;2024-03-02T15:43:57;0.80;;;0.80;;
15356;SDS011;7778;48.792;9.260;2024-03-02T15:46:43;2.00;;;0.90;;
15356;SDS011;7778;48.792;9.260;2024-03-02T15:49:29;2.28;;;1.00;;
15356;SDS011;7778;48.792;9.260;2024-03-02T15:52:15;0.68;;;0.68;;
15356;SDS011;7778;48.792;9.260;2024-03-02T15:55:03;1.67;;;0.88;;
15356;SDS011;7778;48.792;9.260;2024-03-02T15:57:50;0.82;;;0.70;;
15356;SDS011;7778;48.792;9.260;2024-03-02T16:00:36;0.70;;;0.70;;
15356;SDS011;7778;48.792;9.260;2024-03-02T16:03:21;2.05;;;1.08;;
15356;SDS011;7778;48.792;9.260;2024-03-02T16:06:07;1.08;;;0.77;;
15356;SDS011;7778;48.792;9.260;2024-03-02T16:08:52;1.15;;;1.00;;
15356;SDS011;7778;48.792;9.260;2024-03-02T16:11:41;1.48;;;0.90;;
15356;SDS011;7778;48.792;9.260;2024-03-02T16:14:27;1.67;;;1.10;;
15356;SDS011;7778;48.792;9.260;2024-03-02T16:17:13;2.08;;;0.98;;
15356;SDS011;7778;48.792;9.260;2024-03-02T16:19:59;3.47;;;1.98;;
15356;SDS011;7778;48.792;9.260;2024-03-02T16:22:45;3.58;;;1.95;;
15356;SDS011;7778;48.792;9.260;2024-03-02T16:25:30;2.20;;;1.67;;
15356;SDS011;7778;48.792;9.260;2024-03-02T16:28:16;1.20;;;1.10;;
15356;SDS011;7778;48.792;9.260;2024-03-02T16:31:03;2.15;;;1.35;;
15356;SDS011;7778;48.792;9.260;2024-03-02T16:33:49;3.72;;;1.13;;
15356;SDS011;7778;48.792;9.260;2024-03-02T16:36:34;1.95;;;1.73;;
15356;SDS011;7778;48.792;9.260;2024-03-02T16:39:21;2.08;;;1.52;;
15356;SDS011;7778;48.792;9.260;2024-03-02T16:42:07;2.55;;;1.60;;
15356;SDS011;7778;48.792;9.260;2024-03-02T16:44:53;1.95;;;1.60;;
15356;SDS011;7778;48.792;9.260;2024-03-02T16:47:42;4.25;;;2.33;;
15356;SDS011;7778;48.792;9.260;2024-03-02T16:50:27;4.47;;;1.98;;
15356;SDS011;7778;48.792;9.260;2024-03-02T16:53:15;5.10;;;2.00;;
15356;SDS011;7778;48.792;9.260;2024-03-02T16:56:01;3.75;;;1.95;;
15356;SDS011;7778;48.792;9.260;2024-03-02T16:58:48;4.13;;;2.22;;